Duke Field,(Eglin Af Aux Nr 3) Airport
KEGI : now visible

Airfield :











YOU CAN JOIN US ON...

 
LOGIN :

Register | Disclaimer

   EN    FR    IT 

 









Legend :    VFR   Marginal VFR   IFR   Intensive IFR   Very Intensive IFR
Visi :
Ceiling :
>= 8 km
>= 3000ft
5 to 8 km
1000 to 3000 ft
1500m to 5 km
500 to 1000 ft
800 to 1500m
200 to 500 ft
< 800m
< 200 ft
Symbols :   Thunderstorms  Fog  Heavy snow  Heavy precipitations  Wind > 20 kt







- Airport Elevation : 191 ft


KEGI - Duke Field,(Eglin Af Aux Nr 3)

CURRENT METAR :
  • 252318Z AUTO 16004KT 10SM -TSRA BKN012 22/20 A2988 RMK AO2 RAB12 TSB01 BKN V SCT SLP119 $

EXPIRED METARs :
  • 252309Z AUTO 00000KT 10SM TS SCT012 22/20 A2987 RMK AO2 TSB01 SLP115 $
  • 252256Z AUTO 18005KT 10SM VCTS BKN013 22/20 A2988 RMK AO2 RAB25E37DZB37E39 SLP119 P0000 T02180199 $
  • 252239Z AUTO 17007KT 10SM BKN013 22/20 A2987 RMK AO2 RAB25E37DZB37E39 SLP116 $
  • 252225Z AUTO 18009KT 10SM -RA BKN013 22/20 A2986 RMK AO2 RAB25 SLP112 $
  • 252158Z AUTO 16008KT 10SM BKN013 22/19 A2985 RMK AO2 SLP109 $
  • 252148Z AUTO 17009KT 10SM SCT015 22/19 A2984 RMK AO2 SLP105 $
  • 252118Z AUTO 17014G23KT 10SM SCT015 SCT170 23/19 A2985 RMK AO2 SLP109 $
  • 252056Z AUTO 17013G19KT 10SM BKN016 23/19 A2986 RMK AO2 SLP112 T02310190 57026 $

TAF AMD TAF KEGI
Valid from the 25 at 21:00 until the 26 at 23:00 UTC


252140Z 2521/2623 17013G22KT 9999 BKN016 BKN150 QNH2986INS
BECMG 2521/2522 20015G25KT 8000 -SHRA VCTS BKN010CB BKN070 OVC150 QNH2979INS
TEMPO 2523/2604 VRB20G35KT 4800 -TSRA BKN007CB
BECMG 2605/2606 20010G15KT 9999 VCSH BKN015 BKN120 QNH2980INS
BECMG 2607/2608 21008KT 9999 NSW SCT011 QNH2982INS
BECMG 2610/2611 27010G15KT 9999 SCT009 QNH2986INS
BECMG 2613/2614 31013G20KT 9999 FEW020 QNH2992INS TX23/2521Z TN20/2611Z
KZJX FIR / North America



MET'MAP, your aeronautical weather chart ! - Copyright ORBIFLY December 2007 - Disclaimer

ORBIFLY MET'MAP TEAM :

Programming & Development : Alexandra Zaïnal
Concept & Development : Baudouin d'Aumeries
Co-Development & Prog : Marc-Olivier Méhu
Technical & hardware support : Manuel Goepfert

Contact : metmap@orbifly.com




SOURCES & CREDITS :

   NOAA       Earth
Advisory